createdAt,value
2019-03-03T00:02:36.097Z,9.50
2019-03-03T00:05:40.552Z,9.60
2019-03-03T00:08:45.316Z,9.50
2019-03-03T00:11:49.757Z,9.40
2019-03-03T00:14:54.471Z,9.50
2019-03-03T00:17:58.983Z,9.50
2019-03-03T00:21:03.406Z,9.40
2019-03-03T00:24:07.841Z,9.30
2019-03-03T00:27:12.580Z,9.30
2019-03-03T00:30:21.311Z,9.30
2019-03-03T00:33:26.137Z,9.30
2019-03-03T00:36:32.204Z,9.40
2019-03-03T00:39:41.329Z,9.40
2019-03-03T00:42:47.413Z,9.40
2019-03-03T00:46:09.677Z,9.40
2019-03-03T00:49:18.922Z,9.40
2019-03-03T00:52:31.093Z,9.40
2019-03-03T00:55:37.448Z,9.40
2019-03-03T00:58:56.406Z,9.40
2019-03-03T01:02:05.258Z,9.40
2019-03-03T01:05:23.791Z,9.50
2019-03-03T01:08:32.614Z,9.40
2019-03-03T01:11:44.630Z,9.40
2019-03-03T01:14:51.390Z,9.40
2019-03-03T01:18:03.715Z,9.40
2019-03-03T01:21:12.532Z,9.40
2019-03-03T01:24:36.637Z,9.50
2019-03-03T01:27:41.349Z,9.60
2019-03-03T01:30:45.860Z,9.60
2019-03-03T01:33:50.301Z,9.70
2019-03-03T01:36:54.729Z,9.70
2019-03-03T01:39:59.165Z,9.70
2019-03-03T01:43:03.594Z,9.70
2019-03-03T01:46:08.295Z,9.60
2019-03-03T01:49:13.031Z,9.60
2019-03-03T01:52:17.466Z,9.50
2019-03-03T01:55:21.923Z,9.50
2019-03-03T01:58:26.610Z,9.50
2019-03-03T02:01:31.405Z,9.50
2019-03-03T02:04:35.835Z,9.50
2019-03-03T02:07:40.257Z,9.40
2019-03-03T02:10:45.128Z,9.40
2019-03-03T02:13:49.847Z,9.40
2019-03-03T02:16:54.582Z,9.40
2019-03-03T02:19:59.315Z,9.40
2019-03-03T02:23:03.750Z,9.40
2019-03-03T02:26:08.187Z,9.40
2019-03-03T02:29:12.889Z,9.40
2019-03-03T02:32:17.318Z,9.40
2019-03-03T02:35:21.819Z,9.40
2019-03-03T02:38:27.187Z,9.40
2019-03-03T02:41:31.912Z,9.40
2019-03-03T02:44:36.438Z,9.40
2019-03-03T02:47:41.174Z,9.40
2019-03-03T02:50:45.612Z,9.40
2019-03-03T02:53:50.113Z,9.40
2019-03-03T02:56:54.536Z,9.40
2019-03-03T02:59:59.276Z,9.30
2019-03-03T03:03:07.770Z,9.30
2019-03-03T03:06:14.164Z,9.30
2019-03-03T03:09:22.941Z,9.30
2019-03-03T03:12:31.916Z,9.30
2019-03-03T03:15:40.661Z,9.30
2019-03-03T03:19:02.775Z,9.30
2019-03-03T03:22:08.925Z,9.30
2019-03-03T03:25:25.147Z,9.30
2019-03-03T03:28:47.590Z,9.30
2019-03-03T03:31:56.950Z,9.30
2019-03-03T03:35:12.033Z,9.30
2019-03-03T03:38:30.101Z,9.30
2019-03-03T03:41:36.423Z,9.30
2019-03-03T03:44:48.526Z,9.30
2019-03-03T03:48:12.913Z,9.20
2019-03-03T03:51:27.894Z,9.20
2019-03-03T03:54:50.385Z,9.10
2019-03-03T03:57:56.804Z,9.10
2019-03-03T04:01:02.892Z,9.10
2019-03-03T04:04:11.900Z,9.10
2019-03-03T04:07:18.248Z,9.10
2019-03-03T04:10:26.815Z,9.10
2019-03-03T04:13:32.903Z,9.00
2019-03-03T04:16:47.689Z,9.00
2019-03-03T04:19:53.747Z,9.00
2019-03-03T04:23:02.601Z,8.90
2019-03-03T04:26:24.844Z,8.90
2019-03-03T04:29:36.931Z,8.90
2019-03-03T04:32:47.106Z,8.90
2019-03-03T04:35:59.312Z,8.80
2019-03-03T04:39:20.332Z,8.90
2019-03-03T04:42:38.175Z,8.90
2019-03-03T04:45:50.369Z,8.90
2019-03-03T04:48:59.394Z,8.90
2019-03-03T04:52:21.505Z,8.90
2019-03-03T04:55:43.908Z,8.80
2019-03-03T04:58:51.070Z,8.80
2019-03-03T05:02:02.847Z,8.80
2019-03-03T05:05:16.417Z,8.70
2019-03-03T05:08:25.193Z,8.70
2019-03-03T05:12:23.910Z,8.70
2019-03-03T05:15:45.224Z,8.80
2019-03-03T05:18:51.620Z,8.80
2019-03-03T05:21:56.359Z,8.80
2019-03-03T05:25:00.785Z,8.80
2019-03-03T05:28:05.509Z,8.80
2019-03-03T05:31:10.017Z,8.80
2019-03-03T05:34:16.644Z,8.80
2019-03-03T05:37:21.325Z,8.70
2019-03-03T05:40:26.066Z,8.60
2019-03-03T05:43:30.514Z,8.60
2019-03-03T05:46:35.214Z,8.50
2019-03-03T05:49:39.961Z,8.50
2019-03-03T05:52:44.387Z,8.40
2019-03-03T05:55:49.099Z,8.30
2019-03-03T05:58:53.839Z,8.40
2019-03-03T06:01:58.265Z,8.40
2019-03-03T06:05:02.692Z,8.40
2019-03-03T06:08:07.127Z,8.40
2019-03-03T06:11:11.554Z,8.50
2019-03-03T06:14:16.259Z,8.60
2019-03-03T06:17:20.990Z,8.60
2019-03-03T06:20:25.414Z,8.70
2019-03-03T06:23:30.244Z,8.70
2019-03-03T06:26:34.677Z,8.90
2019-03-03T06:29:39.404Z,9.00
2019-03-03T06:32:44.134Z,9.00
2019-03-03T06:35:48.559Z,9.00
2019-03-03T06:38:53.286Z,9.00
2019-03-03T06:41:58.022Z,9.00
2019-03-03T06:45:02.475Z,9.00
2019-03-03T06:48:06.900Z,9.00
2019-03-03T06:51:11.322Z,9.00
2019-03-03T06:54:16.117Z,9.00
2019-03-03T06:57:20.846Z,9.00
2019-03-03T07:00:25.269Z,9.10
2019-03-03T07:03:29.705Z,9.30
2019-03-03T07:06:34.138Z,9.60
2019-03-03T07:09:38.954Z,10.00
2019-03-03T07:12:43.396Z,10.30
2019-03-03T07:15:48.108Z,10.40
2019-03-03T07:18:52.840Z,10.40
2019-03-03T07:21:57.571Z,10.30
2019-03-03T07:25:02.030Z,10.40
2019-03-03T07:28:06.724Z,10.30
2019-03-03T07:31:11.453Z,10.20
2019-03-03T07:34:16.190Z,10.30
2019-03-03T07:37:20.614Z,10.40
2019-03-03T07:40:25.057Z,10.40
2019-03-03T07:43:29.506Z,10.30
2019-03-03T07:46:34.917Z,10.30
2019-03-03T07:49:39.363Z,10.20
2019-03-03T07:52:43.867Z,10.20
2019-03-03T07:55:48.591Z,10.20
2019-03-03T07:58:53.031Z,10.30
2019-03-03T08:01:57.744Z,10.30
2019-03-03T08:05:02.474Z,10.30
2019-03-03T08:08:06.911Z,10.40
2019-03-03T08:11:11.631Z,10.40
2019-03-03T08:14:16.364Z,10.40
2019-03-03T08:17:20.790Z,10.40
2019-03-03T08:20:25.510Z,10.40
2019-03-03T08:23:29.951Z,10.50
2019-03-03T08:26:34.664Z,10.40
2019-03-03T08:29:39.110Z,10.40
2019-03-03T08:32:43.547Z,10.30
2019-03-03T08:35:48.001Z,10.30
2019-03-03T08:38:52.767Z,10.40
2019-03-03T08:41:59.135Z,10.40
2019-03-03T08:45:06.017Z,10.40
2019-03-03T08:48:21.200Z,10.50
2019-03-03T08:51:27.284Z,10.60
2019-03-03T08:54:36.097Z,10.60
2019-03-03T08:57:42.189Z,10.60
2019-03-03T09:00:50.961Z,10.60
2019-03-03T09:04:13.444Z,10.50
2019-03-03T09:07:19.544Z,10.50
2019-03-03T09:10:28.618Z,10.60
2019-03-03T09:13:37.590Z,10.50
2019-03-03T09:16:48.278Z,10.60
2019-03-03T09:20:03.974Z,10.60
2019-03-03T09:23:16.309Z,10.70
2019-03-03T09:26:28.359Z,10.80
2019-03-03T09:29:34.450Z,10.80
2019-03-03T09:32:40.854Z,10.80
2019-03-03T09:35:45.374Z,10.90
2019-03-03T09:39:08.029Z,10.90
2019-03-03T09:42:23.308Z,10.80
2019-03-03T09:45:31.993Z,10.80
2019-03-03T09:48:54.687Z,10.90
2019-03-03T09:52:01.226Z,10.90
2019-03-03T09:55:07.874Z,10.90
2019-03-03T09:58:19.914Z,10.90
2019-03-03T10:01:31.792Z,10.90
2019-03-03T10:04:44.137Z,11.00
2019-03-03T10:07:52.875Z,11.10
2019-03-03T10:10:57.380Z,11.10
2019-03-03T10:14:03.456Z,11.10
2019-03-03T10:17:21.789Z,11.20
2019-03-03T10:20:30.599Z,11.30
2019-03-03T10:23:53.064Z,11.30
2019-03-03T10:27:11.418Z,11.30
2019-03-03T10:30:18.361Z,11.30
2019-03-03T10:33:34.605Z,11.40
2019-03-03T10:36:44.285Z,11.40
2019-03-03T10:40:06.687Z,11.50
2019-03-03T10:43:12.777Z,11.60
2019-03-03T10:46:21.518Z,11.60
2019-03-03T10:49:33.581Z,11.70
2019-03-03T10:52:40.056Z,11.70
2019-03-03T10:55:46.134Z,11.70
2019-03-03T10:58:52.218Z,11.70
2019-03-03T11:02:01.208Z,11.70
2019-03-03T11:05:10.512Z,11.70
2019-03-03T11:08:16.607Z,11.70
2019-03-03T11:11:38.883Z,11.60
2019-03-03T11:14:50.562Z,11.60
2019-03-03T11:17:57.562Z,11.50
2019-03-03T11:21:06.971Z,11.50
2019-03-03T11:24:29.437Z,11.50
2019-03-03T11:27:49.610Z,11.40
2019-03-03T11:30:55.982Z,11.50
2019-03-03T11:34:05.236Z,11.40
2019-03-03T11:37:14.244Z,11.40
2019-03-03T11:40:29.492Z,11.40
2019-03-03T11:43:38.228Z,11.40
2019-03-03T11:46:44.303Z,11.40
2019-03-03T11:49:50.388Z,11.50
2019-03-03T11:52:54.895Z,11.50
2019-03-03T11:56:19.810Z,11.60
2019-03-03T11:59:31.903Z,11.60
2019-03-03T12:02:54.358Z,11.80
2019-03-03T12:06:12.734Z,11.90
2019-03-03T12:09:25.033Z,11.90
2019-03-03T12:12:31.114Z,11.80
2019-03-03T12:15:40.208Z,11.80
2019-03-03T12:18:54.839Z,11.80
2019-03-03T12:22:01.143Z,11.70
2019-03-03T12:25:10.786Z,11.70
2019-03-03T12:28:25.564Z,11.80
2019-03-03T12:31:34.279Z,11.80
2019-03-03T12:34:38.541Z,11.90
2019-03-03T12:37:47.548Z,12.10
2019-03-03T12:41:09.322Z,12.20
2019-03-03T12:44:15.459Z,12.30
2019-03-03T12:47:25.373Z,12.50
2019-03-03T12:50:47.821Z,12.60
2019-03-03T12:54:08.728Z,12.90
2019-03-03T12:57:17.267Z,13.00
2019-03-03T13:00:26.280Z,13.10
2019-03-03T13:03:48.719Z,13.00
2019-03-03T13:06:57.566Z,13.00
2019-03-03T13:10:12.363Z,12.80
2019-03-03T13:13:21.220Z,12.70
2019-03-03T13:16:42.563Z,12.60
2019-03-03T13:19:58.418Z,12.50
2019-03-03T13:23:20.082Z,12.50
2019-03-03T13:26:41.968Z,12.50
2019-03-03T13:29:53.482Z,12.40
2019-03-03T13:33:05.829Z,12.40
2019-03-03T13:36:12.239Z,12.30
2019-03-03T13:39:21.090Z,12.30
2019-03-03T13:42:36.291Z,12.30
2019-03-03T13:45:40.792Z,12.30
2019-03-03T13:48:45.660Z,12.40
2019-03-03T13:51:50.096Z,12.50
2019-03-03T13:54:54.906Z,12.50
2019-03-03T13:57:59.339Z,12.40
2019-03-03T14:01:04.276Z,12.40
2019-03-03T14:04:08.771Z,12.40
2019-03-03T14:07:13.221Z,12.40
2019-03-03T14:10:17.693Z,12.50
2019-03-03T14:13:22.133Z,12.50
2019-03-03T14:16:26.638Z,12.60
2019-03-03T14:19:31.494Z,12.60
2019-03-03T14:22:36.257Z,12.70
2019-03-03T14:25:40.707Z,12.80
2019-03-03T14:28:45.144Z,13.00
2019-03-03T14:31:49.603Z,13.00
2019-03-03T14:34:54.036Z,13.10
2019-03-03T14:37:58.782Z,13.20
2019-03-03T14:41:03.511Z,13.10
2019-03-03T14:44:08.243Z,13.30
2019-03-03T14:47:12.691Z,13.40
2019-03-03T14:50:21.196Z,13.40
2019-03-03T14:53:25.631Z,13.50
2019-03-03T14:56:30.339Z,13.60
2019-03-03T14:59:35.286Z,13.70
2019-03-03T15:02:39.813Z,13.80
2019-03-03T15:05:44.254Z,13.90
2019-03-03T15:08:48.955Z,13.80
2019-03-03T15:11:53.404Z,13.80
2019-03-03T15:14:58.215Z,13.70
2019-03-03T15:18:02.732Z,13.50
2019-03-03T15:21:07.171Z,13.40
2019-03-03T15:24:11.744Z,13.40
2019-03-03T15:27:16.522Z,13.30
2019-03-03T15:30:22.893Z,13.20
2019-03-03T15:33:27.341Z,13.10
2019-03-03T15:36:31.788Z,13.00
2019-03-03T15:39:36.574Z,12.90
2019-03-03T15:42:41.755Z,12.90
2019-03-03T15:45:46.203Z,12.90
2019-03-03T15:48:50.647Z,12.90
2019-03-03T15:51:55.082Z,12.90
2019-03-03T15:54:59.521Z,12.90
2019-03-03T15:58:03.961Z,12.80
2019-03-03T16:01:13.253Z,12.90
2019-03-03T16:04:17.998Z,12.90
2019-03-03T16:07:22.731Z,12.90
2019-03-03T16:10:28.191Z,12.80
2019-03-03T16:13:32.930Z,12.80
2019-03-03T16:16:37.365Z,12.70
2019-03-03T16:19:42.067Z,12.70
2019-03-03T16:22:46.846Z,12.70
2019-03-03T16:25:51.719Z,12.60
2019-03-03T16:28:56.400Z,12.60
2019-03-03T16:32:00.843Z,12.60
2019-03-03T16:35:07.086Z,12.50
2019-03-03T16:38:11.529Z,12.50
2019-03-03T16:41:16.215Z,12.40
2019-03-03T16:44:20.650Z,12.40
2019-03-03T16:47:25.359Z,12.40
2019-03-03T16:50:29.792Z,12.40
2019-03-03T16:53:34.232Z,12.40
2019-03-03T16:56:38.679Z,12.40
2019-03-03T16:59:43.457Z,12.30
2019-03-03T17:02:48.199Z,12.30
2019-03-03T17:05:53.017Z,12.30
2019-03-03T17:08:57.464Z,12.30
2019-03-03T17:12:02.600Z,12.30
2019-03-03T17:15:14.793Z,12.40
2019-03-03T17:18:19.246Z,12.40
2019-03-03T17:21:23.732Z,12.40
2019-03-03T17:24:28.123Z,12.30
2019-03-03T17:27:32.897Z,12.20
2019-03-03T17:30:37.499Z,12.20
2019-03-03T17:33:42.259Z,12.10
2019-03-03T17:36:46.698Z,12.00
2019-03-03T17:39:51.459Z,12.00
2019-03-03T17:42:55.857Z,12.00
2019-03-03T17:46:00.297Z,11.90
2019-03-03T17:49:04.735Z,11.90
2019-03-03T17:52:09.455Z,11.90
2019-03-03T17:55:15.193Z,11.90
2019-03-03T17:58:19.899Z,11.80
2019-03-03T18:01:24.735Z,11.80
2019-03-03T18:04:29.466Z,11.70
2019-03-03T18:07:33.919Z,11.70
2019-03-03T18:10:38.427Z,11.70
2019-03-03T18:13:42.873Z,11.70
2019-03-03T18:16:47.310Z,11.70
2019-03-03T18:19:51.752Z,11.60
2019-03-03T18:22:56.521Z,11.50
2019-03-03T18:26:02.889Z,11.40
2019-03-03T18:29:07.618Z,11.40
2019-03-03T18:32:12.059Z,11.30
2019-03-03T18:35:17.293Z,11.30
2019-03-03T18:38:22.015Z,11.30
2019-03-03T18:41:26.459Z,11.20
2019-03-03T18:44:31.176Z,11.10
2019-03-03T18:47:35.606Z,10.90
2019-03-03T18:50:40.314Z,10.80
2019-03-03T18:53:44.769Z,10.50
2019-03-03T18:56:49.211Z,10.40
2019-03-03T18:59:55.492Z,10.30
2019-03-03T19:03:00.155Z,10.20
2019-03-03T19:06:05.006Z,10.10
2019-03-03T19:09:11.513Z,10.00
2019-03-03T19:12:16.314Z,9.90
2019-03-03T19:15:21.595Z,9.90
2019-03-03T19:18:26.028Z,10.00
2019-03-03T19:21:30.472Z,10.10
2019-03-03T19:24:35.225Z,10.30
2019-03-03T19:27:40.894Z,10.50
2019-03-03T19:30:45.444Z,10.60
2019-03-03T19:33:54.235Z,10.70
2019-03-03T19:36:58.677Z,10.80
2019-03-03T19:40:03.384Z,10.90
2019-03-03T19:43:07.964Z,10.80
2019-03-03T19:46:12.859Z,10.70
2019-03-03T19:49:17.276Z,10.70
2019-03-03T19:52:21.996Z,10.70
2019-03-03T19:55:26.441Z,10.70
2019-03-03T19:58:30.878Z,10.70
2019-03-03T20:01:35.329Z,10.70
2019-03-03T20:04:40.100Z,10.70
2019-03-03T20:07:44.835Z,10.80
2019-03-03T20:10:49.342Z,10.80
2019-03-03T20:13:53.777Z,10.80
2019-03-03T20:16:58.266Z,10.80
2019-03-03T20:20:02.936Z,10.80
2019-03-03T20:23:08.152Z,10.80
2019-03-03T20:26:13.029Z,10.70
2019-03-03T20:29:17.513Z,10.70
2019-03-03T20:32:21.920Z,10.60
2019-03-03T20:35:26.431Z,10.60
2019-03-03T20:38:30.870Z,10.50
2019-03-03T20:41:35.313Z,10.40
2019-03-03T20:44:39.742Z,10.40
2019-03-03T20:47:44.190Z,10.30
2019-03-03T20:50:48.626Z,10.30
2019-03-03T20:53:53.056Z,10.20
2019-03-03T20:56:57.500Z,10.20
2019-03-03T21:00:02.210Z,10.10
2019-03-03T21:03:06.650Z,10.10
2019-03-03T21:06:11.448Z,10.00
2019-03-03T21:09:16.376Z,10.00
2019-03-03T21:12:20.827Z,9.90
2019-03-03T21:15:25.264Z,9.90
2019-03-03T21:18:29.695Z,9.90
2019-03-03T21:21:34.134Z,9.80
2019-03-03T21:24:38.805Z,9.60
2019-03-03T21:27:43.238Z,9.60
2019-03-03T21:30:47.675Z,9.50
2019-03-03T21:33:52.101Z,9.40
2019-03-03T21:36:56.542Z,9.40
2019-03-03T21:40:00.976Z,9.30
2019-03-03T21:43:05.443Z,9.30
2019-03-03T21:46:09.872Z,9.30
2019-03-03T21:49:14.601Z,9.20
2019-03-03T21:52:19.038Z,9.10
2019-03-03T21:55:23.750Z,9.20
2019-03-03T21:58:28.177Z,9.10
2019-03-03T22:01:32.907Z,9.10
2019-03-03T22:04:37.641Z,9.20
2019-03-03T22:07:42.368Z,9.20
2019-03-03T22:10:46.854Z,9.20
2019-03-03T22:13:51.225Z,9.30
2019-03-03T22:16:55.663Z,9.30
2019-03-03T22:20:00.823Z,9.30
2019-03-03T22:23:05.504Z,9.40
2019-03-03T22:26:09.941Z,9.40
2019-03-03T22:29:14.662Z,9.40
2019-03-03T22:32:19.395Z,9.50
2019-03-03T22:35:23.819Z,9.50
2019-03-03T22:38:28.553Z,9.50
2019-03-03T22:41:32.986Z,9.40
2019-03-03T22:44:38.146Z,9.40
2019-03-03T22:47:43.048Z,9.30
2019-03-03T22:50:47.467Z,9.30
2019-03-03T22:53:51.906Z,9.30
2019-03-03T22:56:56.625Z,9.40
2019-03-03T23:00:01.357Z,9.40
2019-03-03T23:03:07.526Z,9.30
2019-03-03T23:06:26.069Z,9.30
2019-03-03T23:10:00.400Z,9.30
2019-03-03T23:13:29.193Z,9.20
2019-03-03T23:16:52.557Z,9.20
2019-03-03T23:20:28.082Z,9.00
2019-03-03T23:24:12.473Z,9.00
2019-03-03T23:27:16.915Z,9.00
2019-03-03T23:30:21.679Z,9.20
2019-03-03T23:33:26.072Z,9.40
2019-03-03T23:36:30.509Z,9.80
2019-03-03T23:39:35.211Z,10.10
2019-03-03T23:42:40.037Z,10.40
2019-03-03T23:45:44.476Z,10.60
2019-03-03T23:48:48.912Z,10.70
2019-03-03T23:51:53.617Z,10.90
2019-03-03T23:54:58.358Z,10.90
2019-03-03T23:58:03.084Z,11.10
